createdAt,value
2019-05-15T00:01:19.287Z,57.48
2019-05-15T00:03:51.523Z,57.35
2019-05-15T00:06:23.120Z,57.14
2019-05-15T00:08:53.300Z,57.09
2019-05-15T00:11:23.477Z,56.83
2019-05-15T00:13:56.081Z,56.87
2019-05-15T00:16:28.843Z,56.66
2019-05-15T00:21:49.010Z,56.42
2019-05-15T00:24:19.289Z,56.46
2019-05-15T00:26:49.805Z,56.44
2019-05-15T00:29:20.048Z,56.37
2019-05-15T00:31:55.896Z,56.49
2019-05-15T00:34:28.567Z,56.67
2019-05-15T00:36:58.926Z,56.77
2019-05-15T00:39:28.910Z,57.25
2019-05-15T00:41:59.109Z,57.81
2019-05-15T00:44:28.946Z,58.01
2019-05-15T00:46:58.897Z,57.47
2019-05-15T00:49:29.045Z,57.28
2019-05-15T00:51:59.222Z,57.56
2019-05-15T00:54:29.271Z,57.86
2019-05-15T00:56:59.245Z,57.58
2019-05-15T00:59:29.931Z,57.60
2019-05-15T01:02:00.250Z,57.71
2019-05-15T01:04:30.198Z,57.69
2019-05-15T01:07:00.851Z,58.09
2019-05-15T01:09:30.785Z,58.26
2019-05-15T01:12:00.587Z,58.00
2019-05-15T01:14:30.534Z,58.16
2019-05-15T01:17:00.544Z,58.22
2019-05-15T01:19:30.544Z,58.31
2019-05-15T01:22:00.817Z,58.25
2019-05-15T01:24:30.796Z,58.11
2019-05-15T01:27:01.111Z,58.15
2019-05-15T01:29:41.111Z,58.10
2019-05-15T01:32:02.730Z,58.04
2019-05-15T01:34:32.689Z,58.31
2019-05-15T01:37:02.651Z,58.15
2019-05-15T01:39:32.606Z,57.92
2019-05-15T01:42:04.047Z,57.99
2019-05-15T01:44:33.935Z,58.66
2019-05-15T01:47:03.955Z,58.76
2019-05-15T01:49:34.253Z,58.80
2019-05-15T01:52:04.263Z,59.13
2019-05-15T01:54:35.562Z,59.68
2019-05-15T01:57:05.561Z,59.73
2019-05-15T01:59:35.840Z,59.69
2019-05-15T02:02:05.838Z,59.86
2019-05-15T02:04:39.319Z,60.10
2019-05-15T02:07:10.051Z,59.99
2019-05-15T02:09:40.019Z,59.74
2019-05-15T02:12:10.328Z,59.49
2019-05-15T02:14:40.312Z,59.15
2019-05-15T02:17:10.285Z,59.24
2019-05-15T02:19:40.256Z,58.95
2019-05-15T02:22:10.391Z,58.90
2019-05-15T02:24:40.999Z,58.75
2019-05-15T02:27:11.027Z,58.81
2019-05-15T02:29:41.036Z,59.11
2019-05-15T02:32:11.012Z,59.29
2019-05-15T02:34:41.232Z,59.61
2019-05-15T02:37:11.377Z,59.79
2019-05-15T02:39:41.172Z,59.55
2019-05-15T02:42:11.220Z,59.68
2019-05-15T02:44:41.951Z,59.70
2019-05-15T02:47:11.950Z,59.91
2019-05-15T02:49:41.944Z,59.98
2019-05-15T02:52:12.103Z,59.98
2019-05-15T02:54:42.005Z,59.74
2019-05-15T02:57:11.893Z,59.55
2019-05-15T02:59:41.983Z,59.17
2019-05-15T03:02:12.001Z,59.08
2019-05-15T03:04:41.889Z,59.16
2019-05-15T03:07:11.894Z,59.65
2019-05-15T03:09:41.904Z,60.03
2019-05-15T03:12:11.883Z,60.18
2019-05-15T03:14:41.908Z,60.57
2019-05-15T03:17:11.918Z,60.72
2019-05-15T03:19:41.868Z,60.97
2019-05-15T03:22:12.314Z,60.79
2019-05-15T03:24:42.289Z,61.13
2019-05-15T03:27:12.322Z,61.55
2019-05-15T03:29:42.340Z,61.56
2019-05-15T03:32:25.144Z,61.76
2019-05-15T03:34:47.473Z,62.22
2019-05-15T03:37:21.476Z,62.17
2019-05-15T03:39:51.598Z,62.48
2019-05-15T03:42:19.242Z,62.54
2019-05-15T03:44:50.162Z,62.51
2019-05-15T03:47:20.357Z,62.64
2019-05-15T03:49:51.427Z,62.73
2019-05-15T03:52:23.173Z,62.78
2019-05-15T03:54:54.668Z,62.91
2019-05-15T03:57:24.688Z,63.01
2019-05-15T03:59:55.630Z,63.06
2019-05-15T04:02:28.629Z,63.33
2019-05-15T04:05:01.646Z,63.23
2019-05-15T04:07:30.249Z,63.07
2019-05-15T04:10:00.212Z,63.11
2019-05-15T04:12:30.233Z,62.98
2019-05-15T04:15:00.260Z,63.41
2019-05-15T04:17:30.331Z,63.31
2019-05-15T04:20:00.311Z,63.36
2019-05-15T04:22:31.405Z,63.33
2019-05-15T04:25:03.731Z,63.21
2019-05-15T04:27:35.014Z,63.27
2019-05-15T04:30:05.522Z,63.73
2019-05-15T04:32:35.436Z,63.67
2019-05-15T04:35:09.321Z,63.45
2019-05-15T04:37:40.499Z,63.40
2019-05-15T04:40:11.134Z,63.32
2019-05-15T04:42:41.068Z,63.45
2019-05-15T04:45:11.073Z,63.67
2019-05-15T04:47:41.498Z,63.67
2019-05-15T04:50:11.971Z,63.40
2019-05-15T04:52:43.252Z,63.48
2019-05-15T04:55:13.586Z,63.44
2019-05-15T04:57:44.629Z,63.46
2019-05-15T05:00:14.801Z,63.44
2019-05-15T05:02:44.901Z,63.60
2019-05-15T05:05:14.919Z,63.13
2019-05-15T05:07:45.535Z,63.22
2019-05-15T05:10:15.545Z,63.47
2019-05-15T05:12:50.565Z,63.34
2019-05-15T05:15:18.982Z,63.84
2019-05-15T05:17:49.199Z,63.71
2019-05-15T05:20:19.240Z,63.50
2019-05-15T05:22:49.150Z,63.13
2019-05-15T05:25:19.173Z,63.40
2019-05-15T05:27:50.475Z,63.38
2019-05-15T05:30:21.109Z,62.97
2019-05-15T05:32:54.361Z,62.94
2019-05-15T05:35:24.322Z,63.01
2019-05-15T05:37:54.553Z,62.66
2019-05-15T05:40:24.505Z,62.83
2019-05-15T05:42:54.575Z,62.98
2019-05-15T05:45:25.340Z,63.06
2019-05-15T05:47:55.332Z,63.68
2019-05-15T05:50:50.817Z,63.39
2019-05-15T05:53:21.618Z,63.31
2019-05-15T05:55:53.348Z,63.50
2019-05-15T05:58:23.322Z,63.56
2019-05-15T06:00:55.018Z,62.92
2019-05-15T06:03:24.945Z,63.22
2019-05-15T06:05:55.042Z,62.69
2019-05-15T06:08:28.096Z,62.15
2019-05-15T06:10:58.514Z,62.54
2019-05-15T06:13:30.139Z,61.75
2019-05-15T06:16:00.165Z,61.74
2019-05-15T06:18:30.207Z,62.68
2019-05-15T06:21:00.464Z,62.72
2019-05-15T06:23:34.828Z,62.33
2019-05-15T06:26:02.774Z,61.66
2019-05-15T06:28:32.704Z,59.65
2019-05-15T06:31:03.322Z,56.70
2019-05-15T06:33:33.323Z,54.90
2019-05-15T06:36:03.381Z,54.36
2019-05-15T06:38:34.572Z,53.50
2019-05-15T06:41:04.908Z,52.66
2019-05-15T06:43:35.685Z,53.07
2019-05-15T06:46:05.954Z,51.90
2019-05-15T06:48:37.987Z,51.73
2019-05-15T06:51:08.923Z,52.91
2019-05-15T06:53:39.128Z,54.00
2019-05-15T06:56:09.143Z,52.20
2019-05-15T06:58:39.377Z,52.60
2019-05-15T07:01:10.468Z,51.68
2019-05-15T07:03:41.682Z,50.90
2019-05-15T07:06:11.675Z,51.00
2019-05-15T07:08:42.772Z,51.26
2019-05-15T07:11:12.694Z,51.54
2019-05-15T07:13:42.772Z,51.09
2019-05-15T07:16:12.765Z,50.54
2019-05-15T07:18:42.756Z,50.65
2019-05-15T07:21:12.658Z,49.71
2019-05-15T07:23:42.663Z,49.52
2019-05-15T07:26:12.734Z,48.18
2019-05-15T07:28:43.106Z,49.22
2019-05-15T07:31:13.058Z,48.75
2019-05-15T07:33:44.002Z,47.36
2019-05-15T07:36:14.481Z,46.87
2019-05-15T07:38:44.712Z,46.12
2019-05-15T07:41:14.817Z,43.96
2019-05-15T07:43:44.811Z,44.24
2019-05-15T07:46:14.788Z,44.38
2019-05-15T07:48:44.741Z,43.79
2019-05-15T07:51:14.731Z,43.68
2019-05-15T07:53:44.701Z,42.67
2019-05-15T07:56:14.583Z,43.05
2019-05-15T07:58:44.570Z,43.53
2019-05-15T08:01:14.534Z,42.91
2019-05-15T08:03:56.459Z,42.42
2019-05-15T08:06:18.007Z,42.30
2019-05-15T08:08:48.771Z,41.74
2019-05-15T08:11:23.961Z,41.85
2019-05-15T08:13:51.511Z,41.77
2019-05-15T08:16:22.027Z,41.58
2019-05-15T08:18:51.972Z,39.51
2019-05-15T08:21:21.974Z,38.88
2019-05-15T08:23:52.213Z,39.06
2019-05-15T08:26:22.216Z,40.28
2019-05-15T08:28:52.276Z,39.56
2019-05-15T08:31:22.573Z,38.90
2019-05-15T08:33:52.496Z,39.92
2019-05-15T08:36:22.440Z,39.42
2019-05-15T08:38:52.376Z,39.26
2019-05-15T08:41:23.330Z,38.79
2019-05-15T08:43:53.273Z,40.45
2019-05-15T08:46:23.276Z,40.01
2019-05-15T08:48:53.293Z,40.07
2019-05-15T08:51:23.273Z,40.46
2019-05-15T08:53:53.166Z,40.86
2019-05-15T08:56:23.103Z,40.17
2019-05-15T08:58:53.251Z,38.95
2019-05-15T09:01:23.258Z,39.11
2019-05-15T09:03:53.187Z,38.62
2019-05-15T09:06:23.389Z,39.33
2019-05-15T09:08:54.326Z,39.60
2019-05-15T09:11:25.084Z,40.16
2019-05-15T09:13:55.154Z,39.60
2019-05-15T09:16:25.003Z,40.30
2019-05-15T09:18:56.288Z,40.57
2019-05-15T09:21:28.369Z,38.15
2019-05-15T09:23:58.861Z,38.78
2019-05-15T09:26:29.031Z,38.77
2019-05-15T09:28:59.050Z,37.85
2019-05-15T09:31:29.048Z,37.96
2019-05-15T09:33:59.251Z,36.64
2019-05-15T09:36:29.537Z,36.10
2019-05-15T09:39:00.060Z,36.87
2019-05-15T09:41:30.280Z,37.64
2019-05-15T09:44:00.223Z,35.74
2019-05-15T09:46:30.158Z,37.71
2019-05-15T09:49:00.252Z,37.05
2019-05-15T09:51:30.278Z,36.24
2019-05-15T09:54:00.273Z,35.77
2019-05-15T09:56:30.188Z,35.22
2019-05-15T09:59:00.183Z,35.41
2019-05-15T10:01:30.188Z,35.49
2019-05-15T10:04:00.194Z,36.55
2019-05-15T10:06:32.125Z,37.19
2019-05-15T10:09:02.113Z,38.29
2019-05-15T10:11:34.668Z,36.76
2019-05-15T10:14:04.858Z,34.09
2019-05-15T10:16:34.840Z,35.61
2019-05-15T10:19:05.749Z,37.31
2019-05-15T10:21:35.730Z,35.66
2019-05-15T10:24:05.823Z,35.77
2019-05-15T10:26:39.128Z,36.59
2019-05-15T10:29:09.113Z,32.77
2019-05-15T10:31:39.278Z,34.85
2019-05-15T10:34:09.390Z,34.56
2019-05-15T10:36:39.561Z,36.29
2019-05-15T10:39:09.622Z,35.55
2019-05-15T10:41:40.895Z,36.66
2019-05-15T10:44:10.961Z,34.94
2019-05-15T10:46:41.298Z,34.32
2019-05-15T10:49:12.213Z,33.99
2019-05-15T10:51:42.481Z,35.54
2019-05-15T10:54:12.862Z,35.57
2019-05-15T10:56:42.913Z,34.10
2019-05-15T10:59:12.976Z,34.65
2019-05-15T11:01:42.976Z,36.17
2019-05-15T11:04:12.958Z,34.31
2019-05-15T11:06:42.964Z,33.65
2019-05-15T11:09:12.970Z,34.15
2019-05-15T11:11:43.030Z,34.22
2019-05-15T11:14:14.252Z,33.40
2019-05-15T11:16:44.258Z,33.19
2019-05-15T11:19:14.581Z,35.78
2019-05-15T11:21:44.518Z,31.57
2019-05-15T11:24:14.722Z,34.85
2019-05-15T11:26:44.756Z,34.57
2019-05-15T11:29:14.742Z,35.42
2019-05-15T11:31:44.742Z,34.87
2019-05-15T11:34:18.389Z,34.15
2019-05-15T11:36:48.523Z,34.75
2019-05-15T11:39:18.530Z,32.86
2019-05-15T11:41:49.228Z,33.83
2019-05-15T11:44:21.805Z,32.43
2019-05-15T11:46:51.772Z,31.71
2019-05-15T11:49:21.784Z,31.89
2019-05-15T11:51:51.813Z,30.41
2019-05-15T11:54:22.015Z,34.00
2019-05-15T11:56:52.129Z,31.96
2019-05-15T11:59:23.342Z,31.16
2019-05-15T12:01:53.321Z,29.44
2019-05-15T12:04:29.812Z,29.86
2019-05-15T12:06:59.651Z,27.97
2019-05-15T12:09:28.332Z,29.97
2019-05-15T12:11:58.330Z,28.78
2019-05-15T12:14:29.940Z,30.75
2019-05-15T12:17:10.085Z,32.64
2019-05-15T12:19:31.717Z,30.79
2019-05-15T12:22:01.705Z,28.16
2019-05-15T12:24:36.785Z,31.83
2019-05-15T12:27:17.510Z,30.01
2019-05-15T12:29:39.748Z,28.92
2019-05-15T12:34:41.569Z,28.72
2019-05-15T12:37:12.022Z,28.47
2019-05-15T12:39:41.928Z,27.65
2019-05-15T12:59:54.842Z,27.67
2019-05-15T13:02:24.882Z,29.18
2019-05-15T13:04:55.206Z,28.13
2019-05-15T13:07:25.454Z,27.76
2019-05-15T13:09:55.471Z,29.02
2019-05-15T13:12:25.581Z,26.23
2019-05-15T13:14:54.772Z,28.43
2019-05-15T13:17:25.675Z,29.61
2019-05-15T13:19:55.686Z,29.84
2019-05-15T13:22:28.133Z,27.50
2019-05-15T13:24:58.871Z,27.51
2019-05-15T13:27:30.233Z,27.38
2019-05-15T13:30:00.210Z,28.50
2019-05-15T13:32:30.637Z,27.80
2019-05-15T13:35:02.276Z,29.93
2019-05-15T13:37:32.173Z,29.93
2019-05-15T13:40:02.138Z,29.49
2019-05-15T13:42:32.083Z,28.47
2019-05-15T13:45:02.447Z,28.39
2019-05-15T13:47:32.655Z,28.39
2019-05-15T13:50:02.632Z,28.62
2019-05-15T13:52:32.655Z,29.75
2019-05-15T13:55:02.623Z,26.47
2019-05-15T13:57:32.564Z,25.95
2019-05-15T14:00:03.225Z,27.17
2019-05-15T14:02:33.232Z,26.83
2019-05-15T14:05:04.816Z,27.96
2019-05-15T14:07:46.000Z,27.46
2019-05-15T14:10:09.439Z,27.07
2019-05-15T14:12:40.629Z,26.11
2019-05-15T14:15:11.129Z,26.80
2019-05-15T14:17:41.135Z,26.38
2019-05-15T14:20:11.140Z,26.70
2019-05-15T14:22:41.012Z,26.53
2019-05-15T14:25:11.484Z,26.81
2019-05-15T14:27:41.656Z,26.75
2019-05-15T14:30:12.462Z,26.58
2019-05-15T14:32:42.455Z,25.27
2019-05-15T14:35:12.586Z,26.45
2019-05-15T14:37:42.917Z,27.54
2019-05-15T14:40:14.549Z,27.78
2019-05-15T14:42:48.342Z,27.78
2019-05-15T14:45:19.101Z,26.15
2019-05-15T14:47:49.391Z,26.29
2019-05-15T14:50:19.679Z,26.09
2019-05-15T14:52:49.670Z,26.09
2019-05-15T14:55:20.029Z,25.89
2019-05-15T14:57:50.140Z,26.72
2019-05-15T15:00:20.937Z,26.14
2019-05-15T15:02:52.148Z,26.67
2019-05-15T15:05:26.170Z,26.21
2019-05-15T15:07:58.616Z,26.92
2019-05-15T15:10:29.139Z,26.97
2019-05-15T15:12:59.273Z,26.42
2019-05-15T15:15:29.260Z,27.38
2019-05-15T15:17:59.376Z,28.11
2019-05-15T15:20:29.267Z,28.01
2019-05-15T15:22:59.295Z,28.15
2019-05-15T15:25:29.622Z,27.57
2019-05-15T15:27:59.872Z,28.08
2019-05-15T15:30:30.025Z,28.08
2019-05-15T15:33:01.245Z,27.06
2019-05-15T15:35:32.327Z,27.60
2019-05-15T15:38:02.669Z,27.69
2019-05-15T15:40:33.018Z,27.82
2019-05-15T15:43:03.272Z,29.75
2019-05-15T15:45:33.169Z,33.25
2019-05-15T15:48:03.209Z,35.20
2019-05-15T15:50:33.264Z,33.88
2019-05-15T15:53:03.575Z,32.97
2019-05-15T15:55:33.551Z,30.06
2019-05-15T15:58:03.581Z,29.83
2019-05-15T16:00:33.738Z,31.39
2019-05-15T16:03:08.397Z,33.58
2019-05-15T16:05:41.479Z,31.89
2019-05-15T16:08:11.953Z,30.42
2019-05-15T16:10:41.893Z,32.32
2019-05-15T16:13:11.863Z,29.74
2019-05-15T16:15:43.582Z,29.74
2019-05-15T16:18:13.596Z,29.05
2019-05-15T16:20:43.478Z,28.74
2019-05-15T16:23:13.749Z,28.94
2019-05-15T16:25:42.998Z,28.17
2019-05-15T16:28:12.795Z,28.88
2019-05-15T16:30:51.012Z,28.69
2019-05-15T16:33:18.257Z,28.72
2019-05-15T16:35:48.636Z,29.81
2019-05-15T16:38:19.194Z,28.46
2019-05-15T16:40:49.460Z,28.23
2019-05-15T16:43:19.449Z,28.03
2019-05-15T16:45:52.012Z,27.94
2019-05-15T16:48:21.087Z,27.54
2019-05-15T16:50:50.981Z,28.09
2019-05-15T16:53:20.956Z,28.27
2019-05-15T16:55:50.905Z,26.97
2019-05-15T16:58:21.245Z,27.53
2019-05-15T17:00:50.377Z,27.57
2019-05-15T17:03:20.313Z,26.86
2019-05-15T17:05:50.669Z,28.34
2019-05-15T17:08:20.687Z,27.53
2019-05-15T17:10:50.703Z,27.42
2019-05-15T17:13:21.047Z,26.62
2019-05-15T17:15:51.250Z,26.93
2019-05-15T17:18:21.188Z,28.05
2019-05-15T17:20:51.194Z,27.94
2019-05-15T17:23:21.493Z,27.23
2019-05-15T17:25:51.702Z,27.99
2019-05-15T17:28:22.024Z,27.80
2019-05-15T17:30:51.030Z,28.92
2019-05-15T17:33:21.271Z,28.28
2019-05-15T17:35:50.382Z,28.48
2019-05-15T17:38:19.302Z,29.12
2019-05-15T17:40:49.319Z,30.20
2019-05-15T17:43:19.366Z,32.07
2019-05-15T17:45:49.383Z,32.39
2019-05-15T17:48:19.825Z,33.51
2019-05-15T17:50:52.691Z,31.20
2019-05-15T17:53:20.570Z,32.05
2019-05-15T17:55:50.406Z,31.57
2019-05-15T17:58:20.384Z,31.57
2019-05-15T18:00:50.395Z,31.38
2019-05-15T18:03:20.384Z,32.24
2019-05-15T18:05:51.000Z,32.71
2019-05-15T18:08:20.954Z,32.29
2019-05-15T18:10:52.110Z,33.23
2019-05-15T18:13:22.122Z,34.18
2019-05-15T18:15:52.003Z,33.79
2019-05-15T18:18:22.324Z,34.60
2019-05-15T18:20:52.253Z,34.36
2019-05-15T18:23:23.678Z,33.68
2019-05-15T18:25:54.167Z,34.25
2019-05-15T18:28:24.501Z,34.64
2019-05-15T18:30:54.438Z,35.35
2019-05-15T18:33:24.772Z,35.28
2019-05-15T18:35:58.040Z,35.35
2019-05-15T18:38:28.131Z,35.91
2019-05-15T18:40:59.172Z,35.83
2019-05-15T18:43:29.517Z,35.78
2019-05-15T18:45:59.551Z,35.52
2019-05-15T18:48:29.875Z,35.23
2019-05-15T18:50:59.867Z,35.58
2019-05-15T18:53:29.720Z,35.60
2019-05-15T18:55:59.974Z,36.38
2019-05-15T18:58:31.327Z,36.24
2019-05-15T19:01:01.251Z,36.14
2019-05-15T19:03:32.840Z,36.44
2019-05-15T19:06:02.948Z,36.20
2019-05-15T19:08:33.620Z,35.90
2019-05-15T19:11:03.932Z,36.02
2019-05-15T19:13:33.946Z,35.90
2019-05-15T19:16:04.304Z,36.00
2019-05-15T19:18:34.365Z,36.18
2019-05-15T19:21:05.331Z,36.68
2019-05-15T19:23:35.368Z,36.08
2019-05-15T19:26:05.661Z,36.28
2019-05-15T19:28:36.065Z,37.00
2019-05-15T19:31:08.807Z,36.94
2019-05-15T19:33:57.703Z,37.21
2019-05-15T19:36:28.917Z,37.39
2019-05-15T19:38:59.727Z,37.12
2019-05-15T19:41:30.655Z,37.46
2019-05-15T19:44:00.646Z,37.48
2019-05-15T19:46:31.098Z,38.09
2019-05-15T19:49:02.542Z,38.19
2019-05-15T19:51:33.251Z,38.42
2019-05-15T19:54:03.632Z,38.67
2019-05-15T19:56:34.103Z,38.87
2019-05-15T19:59:04.265Z,38.89
2019-05-15T20:01:34.528Z,39.24
2019-05-15T20:04:04.867Z,39.33
2019-05-15T20:06:38.806Z,39.51
2019-05-15T20:09:09.380Z,39.57
2019-05-15T20:11:39.368Z,39.90
2019-05-15T20:14:09.720Z,40.50
2019-05-15T20:16:39.915Z,40.66
2019-05-15T20:19:10.410Z,40.52
2019-05-15T20:21:42.427Z,40.48
2019-05-15T20:24:12.511Z,40.53
2019-05-15T20:26:42.534Z,40.72
2019-05-15T20:29:13.853Z,40.87
2019-05-15T20:31:44.116Z,40.92
2019-05-15T20:34:14.085Z,40.80
2019-05-15T20:36:44.346Z,41.19
2019-05-15T20:39:15.140Z,41.25
2019-05-15T20:41:45.067Z,41.43
2019-05-15T20:44:15.158Z,41.42
2019-05-15T20:46:48.406Z,41.58
2019-05-15T20:49:17.965Z,41.84
2019-05-15T20:51:48.975Z,41.94
2019-05-15T20:54:19.071Z,42.06
2019-05-15T20:56:49.140Z,42.09
2019-05-15T20:59:19.200Z,42.16
2019-05-15T21:01:50.838Z,42.46
2019-05-15T21:04:24.044Z,42.46
2019-05-15T21:06:54.529Z,42.77
2019-05-15T21:09:30.673Z,42.52
2019-05-15T21:12:00.815Z,42.98
2019-05-15T21:14:31.545Z,43.34
2019-05-15T21:17:01.522Z,43.92
2019-05-15T21:19:31.716Z,44.41
2019-05-15T21:22:01.857Z,44.68
2019-05-15T21:24:31.830Z,44.79
2019-05-15T21:27:02.026Z,45.02
2019-05-15T21:29:38.184Z,45.66
2019-05-15T21:32:12.242Z,45.85
2019-05-15T21:34:44.463Z,46.05
2019-05-15T21:37:33.829Z,46.04
2019-05-15T21:40:08.280Z,46.48
2019-05-15T21:42:41.514Z,46.92
2019-05-15T21:45:14.594Z,47.12
2019-05-15T21:47:43.607Z,47.76
2019-05-15T21:50:14.828Z,47.96
2019-05-15T21:52:45.123Z,48.06
2019-05-15T21:55:15.191Z,47.53
2019-05-15T21:57:45.186Z,47.72
2019-05-15T22:00:33.230Z,48.08
2019-05-15T22:03:05.002Z,48.03
2019-05-15T22:05:35.083Z,47.95
2019-05-15T22:08:05.054Z,48.00
2019-05-15T22:10:35.076Z,48.46
2019-05-15T22:13:05.973Z,48.70
2019-05-15T22:15:35.997Z,49.23
2019-05-15T22:18:10.776Z,49.23
2019-05-15T22:20:38.926Z,49.26
2019-05-15T22:23:08.896Z,49.73
2019-05-15T22:25:38.894Z,49.40
2019-05-15T22:28:09.218Z,49.59
2019-05-15T22:30:39.367Z,49.76
2019-05-15T22:33:09.563Z,49.80
2019-05-15T22:35:39.949Z,50.02
2019-05-15T22:38:10.067Z,49.92
2019-05-15T22:40:41.438Z,50.15
2019-05-15T22:43:11.405Z,50.19
2019-05-15T22:45:41.351Z,50.33
2019-05-15T22:48:12.265Z,50.46
2019-05-15T22:50:47.812Z,50.93
2019-05-15T22:53:17.903Z,51.23
2019-05-15T22:55:48.443Z,51.16
2019-05-15T22:58:18.583Z,51.72
2019-05-15T23:00:49.081Z,51.94
2019-05-15T23:03:19.165Z,52.36
2019-05-15T23:05:49.119Z,52.35
2019-05-15T23:08:19.062Z,52.73
2019-05-15T23:10:49.330Z,52.64
2019-05-15T23:13:19.309Z,52.96
2019-05-15T23:15:49.089Z,53.38
2019-05-15T23:18:18.987Z,53.78
2019-05-15T23:20:49.031Z,53.81
2019-05-15T23:23:18.940Z,54.01
2019-05-15T23:25:49.436Z,54.20
2019-05-15T23:28:19.769Z,54.12
2019-05-15T23:30:49.982Z,54.27
2019-05-15T23:33:20.226Z,54.42
2019-05-15T23:35:50.213Z,54.77
2019-05-15T23:38:20.199Z,54.79
2019-05-15T23:40:50.202Z,54.80
2019-05-15T23:43:20.167Z,54.78
2019-05-15T23:45:50.388Z,55.12
2019-05-15T23:48:20.429Z,55.21
2019-05-15T23:50:52.511Z,55.36
2019-05-15T23:53:22.480Z,55.37
2019-05-15T23:55:52.436Z,55.63
2019-05-15T23:58:22.387Z,56.04
